Open Full Screen Window  High Contrast Mode
Wind Gusting 23 knots
19
November 21, 2017 2:00 PM EST
Weather Information
Wind Direction
  230 °
Wind Speed
  19 kt (22 mph)
Wind Gust
  23 kt (26 mph)
Altimeter
29.88 in
Visibility
10 SM
Temperature
11° C
52° F
Dewpoint
01° C
34° F
Humidity
50%
1hr Rain Fall
00.00 in.
24hr Rain Fall
00.00 in.
Sky Condition
Clear
VFR

METAR KMRT 211900Z AUTO 23019G23KT 10SM CLR 11/01 A2988 RMK AO2 T01120006

*Background is not an actual portrayal of the airport.